sensor_id;sensor_type;location;lat;lon;timestamp;temperature;humidity
27540;DHT22;15906;52.046;4.724;2023-10-19T00:01:55;11.50;99.90
27540;DHT22;15906;52.046;4.724;2023-10-19T00:04:20;11.30;99.90
27540;DHT22;15906;52.046;4.724;2023-10-19T00:06:47;11.50;99.90
27540;DHT22;15906;52.046;4.724;2023-10-19T00:09:14;11.50;99.90
27540;DHT22;15906;52.046;4.724;2023-10-19T00:11:40;11.50;99.90
27540;DHT22;15906;52.046;4.724;2023-10-19T00:14:06;11.50;99.90
27540;DHT22;15906;52.046;4.724;2023-10-19T00:16:45;11.60;99.90
27540;DHT22;15906;52.046;4.724;2023-10-19T00:19:18;11.70;99.90
27540;DHT22;15906;52.046;4.724;2023-10-19T00:21:45;11.60;99.90
27540;DHT22;15906;52.046;4.724;2023-10-19T00:24:20;11.70;99.90
27540;DHT22;15906;52.046;4.724;2023-10-19T00:26:48;11.70;99.90
27540;DHT22;15906;52.046;4.724;2023-10-19T00:29:14;11.70;99.90
27540;DHT22;15906;52.046;4.724;2023-10-19T00:31:57;11.70;99.90
27540;DHT22;15906;52.046;4.724;2023-10-19T00:34:23;11.70;99.90
27540;DHT22;15906;52.046;4.724;2023-10-19T00:36:50;11.80;99.90
27540;DHT22;15906;52.046;4.724;2023-10-19T00:39:16;11.80;99.90
27540;DHT22;15906;52.046;4.724;2023-10-19T00:41:52;11.80;99.90
27540;DHT22;15906;52.046;4.724;2023-10-19T00:44:23;11.90;99.90
27540;DHT22;15906;52.046;4.724;2023-10-19T00:46:56;11.90;99.90
27540;DHT22;15906;52.046;4.724;2023-10-19T00:49:30;12.00;99.90
27540;DHT22;15906;52.046;4.724;2023-10-19T00:51:58;12.10;99.90
27540;DHT22;15906;52.046;4.724;2023-10-19T00:54:39;12.10;99.90
27540;DHT22;15906;52.046;4.724;2023-10-19T00:57:20;12.10;99.90
27540;DHT22;15906;52.046;4.724;2023-10-19T00:59:46;12.20;99.90
27540;DHT22;15906;52.046;4.724;2023-10-19T01:02:20;12.30;99.90
27540;DHT22;15906;52.046;4.724;2023-10-19T01:04:50;12.40;99.90
27540;DHT22;15906;52.046;4.724;2023-10-19T01:07:27;12.40;99.90
27540;DHT22;15906;52.046;4.724;2023-10-19T01:10:00;12.40;99.90
27540;DHT22;15906;52.046;4.724;2023-10-19T01:12:27;12.40;99.90
27540;DHT22;15906;52.046;4.724;2023-10-19T01:17:31;12.50;99.90
27540;DHT22;15906;52.046;4.724;2023-10-19T01:19:57;12.60;99.90
27540;DHT22;15906;52.046;4.724;2023-10-19T01:22:23;12.70;99.90
27540;DHT22;15906;52.046;4.724;2023-10-19T01:24:52;12.80;99.90
27540;DHT22;15906;52.046;4.724;2023-10-19T01:27:19;12.90;99.90
27540;DHT22;15906;52.046;4.724;2023-10-19T01:29:45;13.00;99.90
27540;DHT22;15906;52.046;4.724;2023-10-19T01:32:12;13.00;99.90
27540;DHT22;15906;52.046;4.724;2023-10-19T01:34:40;12.90;99.90
27540;DHT22;15906;52.046;4.724;2023-10-19T01:37:06;13.10;99.90
27540;DHT22;15906;52.046;4.724;2023-10-19T01:39:35;13.10;99.90
27540;DHT22;15906;52.046;4.724;2023-10-19T01:42:02;13.10;99.90
27540;DHT22;15906;52.046;4.724;2023-10-19T01:44:30;13.20;99.90
27540;DHT22;15906;52.046;4.724;2023-10-19T01:46:56;13.40;99.90
27540;DHT22;15906;52.046;4.724;2023-10-19T01:49:21;13.30;99.90
27540;DHT22;15906;52.046;4.724;2023-10-19T01:51:53;13.60;99.90
27540;DHT22;15906;52.046;4.724;2023-10-19T01:54:20;13.70;99.90
27540;DHT22;15906;52.046;4.724;2023-10-19T01:56:53;13.70;99.90
27540;DHT22;15906;52.046;4.724;2023-10-19T01:59:23;13.80;99.90
27540;DHT22;15906;52.046;4.724;2023-10-19T02:01:53;13.90;99.90
27540;DHT22;15906;52.046;4.724;2023-10-19T02:04:20;13.90;99.90
27540;DHT22;15906;52.046;4.724;2023-10-19T02:06:47;14.00;99.90
27540;DHT22;15906;52.046;4.724;2023-10-19T02:09:14;14.00;99.90
27540;DHT22;15906;52.046;4.724;2023-10-19T02:11:50;14.20;99.90
27540;DHT22;15906;52.046;4.724;2023-10-19T02:14:18;14.10;99.90
27540;DHT22;15906;52.046;4.724;2023-10-19T02:16:49;14.20;99.90
27540;DHT22;15906;52.046;4.724;2023-10-19T02:19:19;14.30;99.90
27540;DHT22;15906;52.046;4.724;2023-10-19T02:21:58;14.40;99.90
27540;DHT22;15906;52.046;4.724;2023-10-19T02:24:25;14.30;99.90
27540;DHT22;15906;52.046;4.724;2023-10-19T02:26:52;14.40;99.90
27540;DHT22;15906;52.046;4.724;2023-10-19T02:29:19;14.40;99.90
27540;DHT22;15906;52.046;4.724;2023-10-19T02:31:45;14.40;99.90
27540;DHT22;15906;52.046;4.724;2023-10-19T02:34:12;14.30;99.90
27540;DHT22;15906;52.046;4.724;2023-10-19T02:36:41;14.30;99.90
27540;DHT22;15906;52.046;4.724;2023-10-19T02:39:08;14.40;99.90
27540;DHT22;15906;52.046;4.724;2023-10-19T02:41:42;14.30;99.90
27540;DHT22;15906;52.046;4.724;2023-10-19T02:44:08;14.40;99.90
27540;DHT22;15906;52.046;4.724;2023-10-19T02:46:47;14.30;99.90
27540;DHT22;15906;52.046;4.724;2023-10-19T02:49:14;14.40;99.90
27540;DHT22;15906;52.046;4.724;2023-10-19T02:51:44;14.40;99.90
27540;DHT22;15906;52.046;4.724;2023-10-19T02:54:11;14.30;99.90
27540;DHT22;15906;52.046;4.724;2023-10-19T02:56:45;14.40;99.90
27540;DHT22;15906;52.046;4.724;2023-10-19T02:59:17;14.30;99.90
27540;DHT22;15906;52.046;4.724;2023-10-19T03:01:55;14.30;99.90
27540;DHT22;15906;52.046;4.724;2023-10-19T03:04:39;14.30;99.90
27540;DHT22;15906;52.046;4.724;2023-10-19T03:07:07;14.30;99.90
27540;DHT22;15906;52.046;4.724;2023-10-19T03:09:38;14.20;99.90
27540;DHT22;15906;52.046;4.724;2023-10-19T03:12:20;14.30;99.90
27540;DHT22;15906;52.046;4.724;2023-10-19T03:14:46;14.10;99.90
27540;DHT22;15906;52.046;4.724;2023-10-19T03:17:13;14.20;99.90
27540;DHT22;15906;52.046;4.724;2023-10-19T03:19:39;14.30;99.90
27540;DHT22;15906;52.046;4.724;2023-10-19T03:22:05;14.20;99.90
27540;DHT22;15906;52.046;4.724;2023-10-19T03:24:34;14.30;99.90
27540;DHT22;15906;52.046;4.724;2023-10-19T03:27:10;14.30;99.90
27540;DHT22;15906;52.046;4.724;2023-10-19T03:29:47;14.30;99.90
27540;DHT22;15906;52.046;4.724;2023-10-19T03:32:25;14.30;99.90
27540;DHT22;15906;52.046;4.724;2023-10-19T03:34:58;14.30;99.90
27540;DHT22;15906;52.046;4.724;2023-10-19T03:37:28;14.30;99.90
27540;DHT22;15906;52.046;4.724;2023-10-19T03:39:57;14.30;99.90
27540;DHT22;15906;52.046;4.724;2023-10-19T03:42:24;14.30;99.90
27540;DHT22;15906;52.046;4.724;2023-10-19T03:44:58;14.20;99.90
27540;DHT22;15906;52.046;4.724;2023-10-19T03:47:25;14.20;99.90
27540;DHT22;15906;52.046;4.724;2023-10-19T03:50:04;14.20;99.90
27540;DHT22;15906;52.046;4.724;2023-10-19T03:52:35;14.10;99.90
27540;DHT22;15906;52.046;4.724;2023-10-19T03:55:03;14.10;99.90
27540;DHT22;15906;52.046;4.724;2023-10-19T03:57:32;14.10;99.90
27540;DHT22;15906;52.046;4.724;2023-10-19T04:00:00;14.00;99.90
27540;DHT22;15906;52.046;4.724;2023-10-19T04:02:26;14.00;99.90
27540;DHT22;15906;52.046;4.724;2023-10-19T04:04:54;13.90;99.90
27540;DHT22;15906;52.046;4.724;2023-10-19T04:07:21;14.10;99.90
27540;DHT22;15906;52.046;4.724;2023-10-19T04:09:56;14.10;99.90
27540;DHT22;15906;52.046;4.724;2023-10-19T04:12:40;14.10;99.90
27540;DHT22;15906;52.046;4.724;2023-10-19T04:15:08;14.10;99.90
27540;DHT22;15906;52.046;4.724;2023-10-19T04:17:46;14.00;99.90
27540;DHT22;15906;52.046;4.724;2023-10-19T04:20:17;14.00;99.90
27540;DHT22;15906;52.046;4.724;2023-10-19T04:22:43;14.00;99.90
27540;DHT22;15906;52.046;4.724;2023-10-19T04:25:09;14.10;99.90
27540;DHT22;15906;52.046;4.724;2023-10-19T04:27:41;14.00;99.90
27540;DHT22;15906;52.046;4.724;2023-10-19T04:30:11;13.90;99.90
27540;DHT22;15906;52.046;4.724;2023-10-19T04:32:48;14.00;99.90
27540;DHT22;15906;52.046;4.724;2023-10-19T04:35:15;13.90;99.90
27540;DHT22;15906;52.046;4.724;2023-10-19T04:37:50;14.00;99.90
27540;DHT22;15906;52.046;4.724;2023-10-19T04:40:21;14.10;99.90
27540;DHT22;15906;52.046;4.724;2023-10-19T04:42:49;14.10;99.90
27540;DHT22;15906;52.046;4.724;2023-10-19T04:45:15;14.10;99.90
27540;DHT22;15906;52.046;4.724;2023-10-19T04:47:41;14.00;99.90
27540;DHT22;15906;52.046;4.724;2023-10-19T04:50:07;14.10;99.90
27540;DHT22;15906;52.046;4.724;2023-10-19T04:52:33;14.10;99.90
27540;DHT22;15906;52.046;4.724;2023-10-19T04:54:59;14.10;99.90
27540;DHT22;15906;52.046;4.724;2023-10-19T04:57:25;14.10;99.90
27540;DHT22;15906;52.046;4.724;2023-10-19T04:59:53;14.10;99.90
27540;DHT22;15906;52.046;4.724;2023-10-19T05:02:19;14.10;99.90
27540;DHT22;15906;52.046;4.724;2023-10-19T05:04:45;14.10;99.90
27540;DHT22;15906;52.046;4.724;2023-10-19T05:07:11;14.20;99.90
27540;DHT22;15906;52.046;4.724;2023-10-19T05:09:44;14.20;99.90
27540;DHT22;15906;52.046;4.724;2023-10-19T05:12:10;14.10;99.90
27540;DHT22;15906;52.046;4.724;2023-10-19T05:14:40;14.10;99.90
27540;DHT22;15906;52.046;4.724;2023-10-19T05:17:07;14.00;99.90
27540;DHT22;15906;52.046;4.724;2023-10-19T05:19:35;13.90;99.90
27540;DHT22;15906;52.046;4.724;2023-10-19T05:22:02;14.00;99.90
27540;DHT22;15906;52.046;4.724;2023-10-19T05:24:28;14.00;99.90
27540;DHT22;15906;52.046;4.724;2023-10-19T05:26:54;14.00;99.90
27540;DHT22;15906;52.046;4.724;2023-10-19T05:29:20;14.10;99.90
27540;DHT22;15906;52.046;4.724;2023-10-19T05:31:46;14.00;99.90
27540;DHT22;15906;52.046;4.724;2023-10-19T05:34:12;14.10;99.90
27540;DHT22;15906;52.046;4.724;2023-10-19T05:36:37;14.10;99.90
27540;DHT22;15906;52.046;4.724;2023-10-19T05:39:04;14.10;99.90
27540;DHT22;15906;52.046;4.724;2023-10-19T05:41:33;14.10;99.90
27540;DHT22;15906;52.046;4.724;2023-10-19T05:43:59;14.10;99.90
27540;DHT22;15906;52.046;4.724;2023-10-19T05:46:25;14.10;99.90
27540;DHT22;15906;52.046;4.724;2023-10-19T05:48:51;14.00;99.90
27540;DHT22;15906;52.046;4.724;2023-10-19T05:51:18;14.00;99.90
27540;DHT22;15906;52.046;4.724;2023-10-19T05:53:43;14.00;99.90
27540;DHT22;15906;52.046;4.724;2023-10-19T05:56:10;14.00;99.90
27540;DHT22;15906;52.046;4.724;2023-10-19T05:58:36;14.00;99.90
27540;DHT22;15906;52.046;4.724;2023-10-19T06:01:02;14.00;99.90
27540;DHT22;15906;52.046;4.724;2023-10-19T06:03:28;14.00;99.90
27540;DHT22;15906;52.046;4.724;2023-10-19T06:05:54;13.90;99.90
27540;DHT22;15906;52.046;4.724;2023-10-19T06:08:22;13.90;99.90
27540;DHT22;15906;52.046;4.724;2023-10-19T06:10:53;13.90;99.90
27540;DHT22;15906;52.046;4.724;2023-10-19T06:13:20;13.90;99.90
27540;DHT22;15906;52.046;4.724;2023-10-19T06:15:48;13.90;99.90
27540;DHT22;15906;52.046;4.724;2023-10-19T06:18:13;13.90;99.90
27540;DHT22;15906;52.046;4.724;2023-10-19T06:20:43;13.80;99.90
27540;DHT22;15906;52.046;4.724;2023-10-19T06:23:09;13.90;99.90
27540;DHT22;15906;52.046;4.724;2023-10-19T06:25:37;13.90;99.90
27540;DHT22;15906;52.046;4.724;2023-10-19T06:28:03;13.90;99.90
27540;DHT22;15906;52.046;4.724;2023-10-19T06:30:29;13.90;99.90
27540;DHT22;15906;52.046;4.724;2023-10-19T06:32:57;14.00;99.90
27540;DHT22;15906;52.046;4.724;2023-10-19T06:35:26;13.90;99.90
27540;DHT22;15906;52.046;4.724;2023-10-19T06:37:53;14.00;99.90
27540;DHT22;15906;52.046;4.724;2023-10-19T06:40:20;14.10;99.90
27540;DHT22;15906;52.046;4.724;2023-10-19T06:42:48;14.10;99.90
27540;DHT22;15906;52.046;4.724;2023-10-19T06:45:17;14.00;99.90
27540;DHT22;15906;52.046;4.724;2023-10-19T06:47:46;14.00;99.90
27540;DHT22;15906;52.046;4.724;2023-10-19T06:50:13;14.10;99.90
27540;DHT22;15906;52.046;4.724;2023-10-19T06:52:41;14.10;99.90
27540;DHT22;15906;52.046;4.724;2023-10-19T06:55:08;14.10;99.90
27540;DHT22;15906;52.046;4.724;2023-10-19T06:58:00;14.10;99.90
27540;DHT22;15906;52.046;4.724;2023-10-19T07:00:26;14.00;99.90
27540;DHT22;15906;52.046;4.724;2023-10-19T07:02:53;14.00;99.90
27540;DHT22;15906;52.046;4.724;2023-10-19T07:05:20;14.10;99.90
27540;DHT22;15906;52.046;4.724;2023-10-19T07:07:48;14.00;99.90
27540;DHT22;15906;52.046;4.724;2023-10-19T07:10:15;14.10;99.90
27540;DHT22;15906;52.046;4.724;2023-10-19T07:12:45;14.10;99.90
27540;DHT22;15906;52.046;4.724;2023-10-19T07:15:12;14.20;99.90
27540;DHT22;15906;52.046;4.724;2023-10-19T07:17:41;14.20;99.90
27540;DHT22;15906;52.046;4.724;2023-10-19T07:20:07;14.30;99.90
27540;DHT22;15906;52.046;4.724;2023-10-19T07:22:35;14.30;99.90
27540;DHT22;15906;52.046;4.724;2023-10-19T07:25:05;14.20;99.90
27540;DHT22;15906;52.046;4.724;2023-10-19T07:27:31;14.20;99.90
27540;DHT22;15906;52.046;4.724;2023-10-19T07:29:57;14.20;99.90
27540;DHT22;15906;52.046;4.724;2023-10-19T07:32:24;14.20;99.90
27540;DHT22;15906;52.046;4.724;2023-10-19T07:34:50;14.30;99.90
27540;DHT22;15906;52.046;4.724;2023-10-19T07:37:15;14.30;99.90
27540;DHT22;15906;52.046;4.724;2023-10-19T07:39:47;14.30;99.90
27540;DHT22;15906;52.046;4.724;2023-10-19T07:42:14;14.30;99.90
27540;DHT22;15906;52.046;4.724;2023-10-19T07:44:40;14.30;99.90
27540;DHT22;15906;52.046;4.724;2023-10-19T07:47:06;14.30;99.90
27540;DHT22;15906;52.046;4.724;2023-10-19T07:49:35;14.30;99.90
27540;DHT22;15906;52.046;4.724;2023-10-19T07:52:06;14.30;99.90
27540;DHT22;15906;52.046;4.724;2023-10-19T07:54:33;14.30;99.90
27540;DHT22;15906;52.046;4.724;2023-10-19T07:57:01;14.30;99.90
27540;DHT22;15906;52.046;4.724;2023-10-19T07:59:33;14.40;99.90
27540;DHT22;15906;52.046;4.724;2023-10-19T08:02:00;14.40;99.90
27540;DHT22;15906;52.046;4.724;2023-10-19T08:04:29;14.40;99.90
27540;DHT22;15906;52.046;4.724;2023-10-19T08:06:56;14.50;99.90
27540;DHT22;15906;52.046;4.724;2023-10-19T08:09:23;14.60;99.90
27540;DHT22;15906;52.046;4.724;2023-10-19T08:11:51;14.70;99.90
27540;DHT22;15906;52.046;4.724;2023-10-19T08:14:25;14.60;99.90
27540;DHT22;15906;52.046;4.724;2023-10-19T08:16:51;14.60;99.90
27540;DHT22;15906;52.046;4.724;2023-10-19T08:19:17;14.60;99.90
27540;DHT22;15906;52.046;4.724;2023-10-19T08:21:44;14.70;99.90
27540;DHT22;15906;52.046;4.724;2023-10-19T08:24:09;14.70;99.90
27540;DHT22;15906;52.046;4.724;2023-10-19T08:26:43;14.60;99.90
27540;DHT22;15906;52.046;4.724;2023-10-19T08:29:08;14.70;99.90
27540;DHT22;15906;52.046;4.724;2023-10-19T08:31:41;14.70;99.90
27540;DHT22;15906;52.046;4.724;2023-10-19T08:34:08;14.70;99.90
27540;DHT22;15906;52.046;4.724;2023-10-19T08:36:35;14.70;99.90
27540;DHT22;15906;52.046;4.724;2023-10-19T08:39:06;14.80;99.90
27540;DHT22;15906;52.046;4.724;2023-10-19T08:41:36;14.80;99.90
27540;DHT22;15906;52.046;4.724;2023-10-19T08:44:04;15.00;99.90
27540;DHT22;15906;52.046;4.724;2023-10-19T08:46:44;15.00;99.90
27540;DHT22;15906;52.046;4.724;2023-10-19T08:49:14;15.20;99.90
27540;DHT22;15906;52.046;4.724;2023-10-19T08:51:43;15.20;99.90
27540;DHT22;15906;52.046;4.724;2023-10-19T08:54:13;15.50;99.90
27540;DHT22;15906;52.046;4.724;2023-10-19T08:56:43;16.10;99.90
27540;DHT22;15906;52.046;4.724;2023-10-19T08:59:10;16.60;99.90
27540;DHT22;15906;52.046;4.724;2023-10-19T09:01:41;17.10;99.90
27540;DHT22;15906;52.046;4.724;2023-10-19T09:04:10;17.50;99.90
27540;DHT22;15906;52.046;4.724;2023-10-19T09:06:39;17.70;99.90
27540;DHT22;15906;52.046;4.724;2023-10-19T09:09:09;17.60;99.90
27540;DHT22;15906;52.046;4.724;2023-10-19T09:11:39;17.30;99.90
27540;DHT22;15906;52.046;4.724;2023-10-19T09:14:04;17.20;99.90
27540;DHT22;15906;52.046;4.724;2023-10-19T09:16:30;17.10;99.90
27540;DHT22;15906;52.046;4.724;2023-10-19T09:18:56;16.90;99.90
27540;DHT22;15906;52.046;4.724;2023-10-19T09:21:22;16.70;99.90
27540;DHT22;15906;52.046;4.724;2023-10-19T09:23:55;16.50;99.90
27540;DHT22;15906;52.046;4.724;2023-10-19T09:26:21;16.50;99.90
27540;DHT22;15906;52.046;4.724;2023-10-19T09:28:52;16.50;99.90
27540;DHT22;15906;52.046;4.724;2023-10-19T09:31:19;16.60;99.90
27540;DHT22;15906;52.046;4.724;2023-10-19T09:33:48;16.70;99.90
27540;DHT22;15906;52.046;4.724;2023-10-19T09:36:14;16.80;99.90
27540;DHT22;15906;52.046;4.724;2023-10-19T09:38:47;16.90;99.90
27540;DHT22;15906;52.046;4.724;2023-10-19T09:41:22;16.90;99.90
27540;DHT22;15906;52.046;4.724;2023-10-19T09:43:58;16.90;99.90
27540;DHT22;15906;52.046;4.724;2023-10-19T09:46:31;16.90;99.90
27540;DHT22;15906;52.046;4.724;2023-10-19T09:48:57;16.70;99.90
27540;DHT22;15906;52.046;4.724;2023-10-19T09:51:23;16.60;99.90
27540;DHT22;15906;52.046;4.724;2023-10-19T09:54:00;16.50;99.90
27540;DHT22;15906;52.046;4.724;2023-10-19T09:56:36;16.30;99.90
27540;DHT22;15906;52.046;4.724;2023-10-19T09:59:26;16.30;99.90
27540;DHT22;15906;52.046;4.724;2023-10-19T10:02:11;16.30;99.90
27540;DHT22;15906;52.046;4.724;2023-10-19T10:04:41;16.30;99.90
27540;DHT22;15906;52.046;4.724;2023-10-19T10:07:08;16.30;99.90
27540;DHT22;15906;52.046;4.724;2023-10-19T10:09:36;16.40;99.90
27540;DHT22;15906;52.046;4.724;2023-10-19T10:12:19;16.40;99.90
27540;DHT22;15906;52.046;4.724;2023-10-19T10:15:00;16.40;99.90
27540;DHT22;15906;52.046;4.724;2023-10-19T10:17:34;16.70;99.90
27540;DHT22;15906;52.046;4.724;2023-10-19T10:22:41;16.90;99.90
27540;DHT22;15906;52.046;4.724;2023-10-19T10:25:26;16.90;99.90
27540;DHT22;15906;52.046;4.724;2023-10-19T10:27:53;16.80;99.90
27540;DHT22;15906;52.046;4.724;2023-10-19T10:30:19;16.90;99.90
27540;DHT22;15906;52.046;4.724;2023-10-19T10:32:48;17.00;99.90
27540;DHT22;15906;52.046;4.724;2023-10-19T10:38:06;17.50;99.90
27540;DHT22;15906;52.046;4.724;2023-10-19T10:40:49;17.60;99.90
27540;DHT22;15906;52.046;4.724;2023-10-19T10:43:16;17.80;99.90
27540;DHT22;15906;52.046;4.724;2023-10-19T10:45:42;17.70;99.90
27540;DHT22;15906;52.046;4.724;2023-10-19T10:48:18;17.60;99.90
27540;DHT22;15906;52.046;4.724;2023-10-19T10:50:44;17.70;99.90
27540;DHT22;15906;52.046;4.724;2023-10-19T10:53:12;17.50;99.90
27540;DHT22;15906;52.046;4.724;2023-10-19T10:55:38;17.50;99.90
27540;DHT22;15906;52.046;4.724;2023-10-19T10:58:07;17.60;99.90
27540;DHT22;15906;52.046;4.724;2023-10-19T11:00:34;17.50;99.90
27540;DHT22;15906;52.046;4.724;2023-10-19T11:03:02;17.40;99.90
27540;DHT22;15906;52.046;4.724;2023-10-19T11:05:30;17.30;99.90
27540;DHT22;15906;52.046;4.724;2023-10-19T11:10:33;17.20;99.90
27540;DHT22;15906;52.046;4.724;2023-10-19T11:13:06;17.20;99.90
27540;DHT22;15906;52.046;4.724;2023-10-19T11:15:33;17.30;99.90
27540;DHT22;15906;52.046;4.724;2023-10-19T11:17:59;17.30;99.90
27540;DHT22;15906;52.046;4.724;2023-10-19T11:20:26;17.30;99.90
27540;DHT22;15906;52.046;4.724;2023-10-19T11:22:55;17.30;99.90
27540;DHT22;15906;52.046;4.724;2023-10-19T11:25:25;17.30;99.90
27540;DHT22;15906;52.046;4.724;2023-10-19T11:27:56;17.40;99.90
27540;DHT22;15906;52.046;4.724;2023-10-19T11:30:23;17.50;99.90
27540;DHT22;15906;52.046;4.724;2023-10-19T11:32:50;17.60;99.90
27540;DHT22;15906;52.046;4.724;2023-10-19T11:35:19;17.80;99.90
27540;DHT22;15906;52.046;4.724;2023-10-19T11:37:49;18.00;99.90
27540;DHT22;15906;52.046;4.724;2023-10-19T11:40:15;17.90;99.90
27540;DHT22;15906;52.046;4.724;2023-10-19T11:42:42;17.90;99.90
27540;DHT22;15906;52.046;4.724;2023-10-19T11:45:08;17.80;99.90
27540;DHT22;15906;52.046;4.724;2023-10-19T11:47:34;17.80;99.90
27540;DHT22;15906;52.046;4.724;2023-10-19T11:50:00;17.90;99.90
27540;DHT22;15906;52.046;4.724;2023-10-19T11:52:26;17.70;99.90
27540;DHT22;15906;52.046;4.724;2023-10-19T11:55:06;17.70;99.90
27540;DHT22;15906;52.046;4.724;2023-10-19T11:57:36;17.70;99.90
27540;DHT22;15906;52.046;4.724;2023-10-19T12:00:05;17.60;99.90
27540;DHT22;15906;52.046;4.724;2023-10-19T12:02:39;17.70;99.90
27540;DHT22;15906;52.046;4.724;2023-10-19T12:05:07;17.60;99.90
27540;DHT22;15906;52.046;4.724;2023-10-19T12:07:39;17.50;99.90
27540;DHT22;15906;52.046;4.724;2023-10-19T12:10:09;17.50;99.90
27540;DHT22;15906;52.046;4.724;2023-10-19T12:12:38;17.50;99.90
27540;DHT22;15906;52.046;4.724;2023-10-19T12:15:04;17.40;99.90
27540;DHT22;15906;52.046;4.724;2023-10-19T12:17:33;17.40;99.90
27540;DHT22;15906;52.046;4.724;2023-10-19T12:19:59;17.30;99.90
27540;DHT22;15906;52.046;4.724;2023-10-19T12:22:25;17.30;99.90
27540;DHT22;15906;52.046;4.724;2023-10-19T12:24:56;17.20;99.90
27540;DHT22;15906;52.046;4.724;2023-10-19T12:27:23;17.20;99.90
27540;DHT22;15906;52.046;4.724;2023-10-19T12:29:50;17.20;99.90
27540;DHT22;15906;52.046;4.724;2023-10-19T12:32:17;17.10;99.90
27540;DHT22;15906;52.046;4.724;2023-10-19T12:34:44;17.00;99.90
27540;DHT22;15906;52.046;4.724;2023-10-19T12:37:10;16.90;99.90
27540;DHT22;15906;52.046;4.724;2023-10-19T12:39:38;16.90;99.90
27540;DHT22;15906;52.046;4.724;2023-10-19T12:42:15;16.90;99.90
27540;DHT22;15906;52.046;4.724;2023-10-19T12:44:41;16.90;99.90
27540;DHT22;15906;52.046;4.724;2023-10-19T12:47:07;16.90;99.90
27540;DHT22;15906;52.046;4.724;2023-10-19T12:49:39;16.90;99.90
27540;DHT22;15906;52.046;4.724;2023-10-19T12:52:09;16.80;99.90
27540;DHT22;15906;52.046;4.724;2023-10-19T12:54:36;16.80;99.90
27540;DHT22;15906;52.046;4.724;2023-10-19T12:57:02;16.70;99.90
27540;DHT22;15906;52.046;4.724;2023-10-19T12:59:36;16.70;99.90
27540;DHT22;15906;52.046;4.724;2023-10-19T13:02:05;16.70;99.90
27540;DHT22;15906;52.046;4.724;2023-10-19T13:04:33;16.60;99.90
27540;DHT22;15906;52.046;4.724;2023-10-19T13:06:59;16.60;99.90
27540;DHT22;15906;52.046;4.724;2023-10-19T13:09:26;16.60;99.90
27540;DHT22;15906;52.046;4.724;2023-10-19T13:11:59;16.60;99.90
27540;DHT22;15906;52.046;4.724;2023-10-19T13:14:26;16.60;99.90
27540;DHT22;15906;52.046;4.724;2023-10-19T13:16:52;16.60;99.90
27540;DHT22;15906;52.046;4.724;2023-10-19T13:19:18;16.70;99.90
27540;DHT22;15906;52.046;4.724;2023-10-19T13:21:49;16.70;99.90
27540;DHT22;15906;52.046;4.724;2023-10-19T13:24:15;16.70;99.90
27540;DHT22;15906;52.046;4.724;2023-10-19T13:26:42;16.60;99.90
27540;DHT22;15906;52.046;4.724;2023-10-19T13:29:11;16.50;99.90
27540;DHT22;15906;52.046;4.724;2023-10-19T13:31:37;16.60;99.90
27540;DHT22;15906;52.046;4.724;2023-10-19T13:34:02;16.60;99.90
27540;DHT22;15906;52.046;4.724;2023-10-19T13:36:30;16.60;99.90
27540;DHT22;15906;52.046;4.724;2023-10-19T13:38:55;16.60;99.90
27540;DHT22;15906;52.046;4.724;2023-10-19T13:41:21;16.60;99.90
27540;DHT22;15906;52.046;4.724;2023-10-19T13:43:47;16.60;99.90
27540;DHT22;15906;52.046;4.724;2023-10-19T13:46:14;16.60;99.90
27540;DHT22;15906;52.046;4.724;2023-10-19T13:48:40;16.60;99.90
27540;DHT22;15906;52.046;4.724;2023-10-19T13:51:05;16.60;99.90
27540;DHT22;15906;52.046;4.724;2023-10-19T13:53:38;16.50;99.90
27540;DHT22;15906;52.046;4.724;2023-10-19T13:56:08;16.50;99.90
27540;DHT22;15906;52.046;4.724;2023-10-19T13:58:34;16.50;99.90
27540;DHT22;15906;52.046;4.724;2023-10-19T14:01:00;16.50;99.90
27540;DHT22;15906;52.046;4.724;2023-10-19T14:03:26;16.50;99.90
27540;DHT22;15906;52.046;4.724;2023-10-19T14:05:52;16.50;99.90
27540;DHT22;15906;52.046;4.724;2023-10-19T14:08:21;16.40;99.90
27540;DHT22;15906;52.046;4.724;2023-10-19T14:10:47;16.40;99.90
27540;DHT22;15906;52.046;4.724;2023-10-19T14:13:13;16.40;99.90
27540;DHT22;15906;52.046;4.724;2023-10-19T14:15:43;16.40;99.90
27540;DHT22;15906;52.046;4.724;2023-10-19T14:18:09;16.20;99.90
27540;DHT22;15906;52.046;4.724;2023-10-19T14:20:35;16.20;99.90
27540;DHT22;15906;52.046;4.724;2023-10-19T14:23:04;16.20;99.90
27540;DHT22;15906;52.046;4.724;2023-10-19T14:25:30;16.20;99.90
27540;DHT22;15906;52.046;4.724;2023-10-19T14:27:56;16.10;99.90
27540;DHT22;15906;52.046;4.724;2023-10-19T14:30:26;16.10;99.90
27540;DHT22;15906;52.046;4.724;2023-10-19T14:32:53;16.10;99.90
27540;DHT22;15906;52.046;4.724;2023-10-19T14:35:21;16.10;99.90
27540;DHT22;15906;52.046;4.724;2023-10-19T14:37:48;16.00;99.90
27540;DHT22;15906;52.046;4.724;2023-10-19T14:40:19;15.90;99.90
27540;DHT22;15906;52.046;4.724;2023-10-19T14:42:54;15.90;99.90
27540;DHT22;15906;52.046;4.724;2023-10-19T14:45:21;15.90;99.90
27540;DHT22;15906;52.046;4.724;2023-10-19T14:47:52;15.90;99.90
27540;DHT22;15906;52.046;4.724;2023-10-19T14:50:18;15.90;99.90
27540;DHT22;15906;52.046;4.724;2023-10-19T14:52:45;15.90;99.90
27540;DHT22;15906;52.046;4.724;2023-10-19T14:55:12;15.90;99.90
27540;DHT22;15906;52.046;4.724;2023-10-19T14:57:44;15.90;99.90
27540;DHT22;15906;52.046;4.724;2023-10-19T15:00:19;16.00;99.90
27540;DHT22;15906;52.046;4.724;2023-10-19T15:02:49;16.10;99.90
27540;DHT22;15906;52.046;4.724;2023-10-19T15:05:16;16.10;99.90
27540;DHT22;15906;52.046;4.724;2023-10-19T15:07:42;16.20;99.90
27540;DHT22;15906;52.046;4.724;2023-10-19T15:10:12;16.30;99.90
27540;DHT22;15906;52.046;4.724;2023-10-19T15:12:41;16.30;99.90
27540;DHT22;15906;52.046;4.724;2023-10-19T15:15:08;16.30;99.90
27540;DHT22;15906;52.046;4.724;2023-10-19T15:17:40;16.30;99.90
27540;DHT22;15906;52.046;4.724;2023-10-19T15:20:08;16.40;99.90
27540;DHT22;15906;52.046;4.724;2023-10-19T15:22:35;16.30;99.90
27540;DHT22;15906;52.046;4.724;2023-10-19T15:25:01;16.20;99.90
27540;DHT22;15906;52.046;4.724;2023-10-19T15:27:27;16.20;99.90
27540;DHT22;15906;52.046;4.724;2023-10-19T15:29:55;16.20;99.90
27540;DHT22;15906;52.046;4.724;2023-10-19T15:32:22;16.20;99.90
27540;DHT22;15906;52.046;4.724;2023-10-19T15:34:48;16.20;99.90
27540;DHT22;15906;52.046;4.724;2023-10-19T15:37:13;16.20;99.90
27540;DHT22;15906;52.046;4.724;2023-10-19T15:39:39;16.10;99.90
27540;DHT22;15906;52.046;4.724;2023-10-19T15:42:04;16.00;99.90
27540;DHT22;15906;52.046;4.724;2023-10-19T15:44:34;16.00;99.90
27540;DHT22;15906;52.046;4.724;2023-10-19T15:46:59;16.00;99.90
27540;DHT22;15906;52.046;4.724;2023-10-19T15:49:25;16.00;99.90
27540;DHT22;15906;52.046;4.724;2023-10-19T15:51:51;15.90;99.90